Aberdeen, Pennsylvania
Current Conditions -  °F | °C
As of 10:56 PM on Wednesday 22 Oct 2014 (Local Time) from KMDT Reporting Station
Overcast Overcast  
Wind Chill: 52°   Ceiling: 2600
Heat Index: 52°   Visibility: 10mi
Dew Point: 42°   Wind: 13mph
Humidity: 69%   Direction: 330°NNW
Pressure: 29.94"   Gusts: 25mph
Location:  40.1674°N, 76.6045°W
Report Text: KMDT 230256Z 33011G22KT 10SM BKN026 OVC060 11/06 A2994 RMK AO2 SLP140 60000 T01110056 58006
Loading
Personal Weather Stations






























Interactive Weather Map
Tropical Storm Tracking
New forecast layout! Learn more

10-Day Weather Forecast

Advertisements
Track Severe Weather on mobile